Startpagina
METAR-TAF:

METAR-TAF

Vliegvelden :

Flughafen Münster-Osnabrück

Münster-Osnabrück, Duitsland

breedte: 52-08N, lengte: 007-42E, hoogte: 48 m

Actueel weer

Dit bericht is 36 minuten geleden gemaakt, om 13:50 UTC
Wind 4 kt uit het oosten, variërend tussen het noordoosten en het zuidzuidoosten
Temperatuur 12°C
Vochtigheid 58%
Druk 1029 hPa
Zicht 10 km of meer
geen wolken onder 1500 m en geen cumulonimbus

METAR: EDDG 161350Z 10004KT 040V160 CAVOK 12/04 Q1029 NOSIG

Tijdstip: 15:26 (14:26 UTC)

Verwachting

Dit bericht is 3 uur en het 26 minuten geleden gemaakt, om 11:00 UTC
Verwachting geldig van 16 om 12 UTC tot 17 om 12 UTC
Wind 6 kt uit het oosten
Zicht 10 km of meer
geen wolken onder 1500 m en geen cumulonimbus

TAF: EDDG 161100Z 1612/1712 09006KT CAVOK

Waarnemingen en weersverwachtingen van meer dan 4000 vliegvelden (METAR en TAF).

De beschikbare stations zijn de gele en rode punten op de kaart.

Ga met uw muis naar het station om de naam te zien.

Klik dan om waarnemingen en weersverwachtingen te zien.

kaart wijzigen: klik op de groene knoppen met een zwart kruis om in te zoomen, op de groene knop met een streepje om uit te zoomen of op de groene pijlen voor aangrenzende kaarten.


METAR-TAF: